Celje, Slovenia

9:11 AM CEST on September 03, 2014 (GMT +0200)
Petrovce | Change Station
CLOSE
Current Station
Personal Weather Station
Location: ZALEC,
Elevation: 822 ft
Nearby Weather Stations

Elev 822 ft 46.24 °N, 15.19 °E | Updated 9 minutes ago

Mostly Cloudy
Mostly Cloudy
59.7 °F
Feels Like 59.7 °F
N
2.0
Wind Variable Wind from West
Gusts 0.0 mph

Today
High -- | Low -- °F
--% Chance of Precip.
Yesterday
High -- | Low -- °F
Precip. -- in
6:21 AM 7:34 PM
First Quarter, 59% visible
Pressure 29.98 in
Visibility 6.2 miles
Clouds Few 3300 ft
Scattered Clouds 8000 ft
Mostly Cloudy 13000 ft
Dew Point 56 °F
Humidity 88%
Rainfall -999.00 in
Snow Depth Not available.
UV 1 out of 12
Pollen Not available.
Air Quality Not available.
Flu Activity Not available.
METAR LJMB 030700Z 04009KT 010V070 9999 FEW033 SCT080 BKN130 16/13 Q1015

More Conditions Fewer Conditions

Pressure 29.98 in
Visibility 6.2 miles
Clouds Few 3300 ft
Scattered Clouds 8000 ft
Mostly Cloudy 13000 ft
Dew Point 56 °F
Humidity 88%
Rainfall -999.00 in
Snow Depth Not available.
UV 1 out of 12
Pollen Not available.
Air Quality Not available.
Flu Activity Not available.
METAR LJMB 030700Z 04009KT 010V070 9999 FEW033 SCT080 BKN130 16/13 Q1015

More Conditions Fewer Conditions

10-Day Weather Forecast

Almanac

Astronomy

Sep. 03, 2014 Rise Set
Actual Time 6:21 AM CEST 7:34 PM CEST
Civil Twilight 5:50 AM CEST 8:05 PM CEST
Nautical Twilight 5:13 AM CEST 8:42 PM CEST
Astronomical Twilight 4:33 AM CEST 9:21 PM CEST
Moon 3:10 PM CEST No Moon Set
Length of Visible Light 14h 14m
Length of Day
13h 12m
Tomorrow will be 3m 11s shorter.
First Quarter, 59% of the Moon is Illuminated
Today
First Quarter
Sep 8
Full
Sep 15
Last Quarter
Sep 24
New
Oct 1
First Quarter

Yesterday's Extremes

Country Highs Country Lows

Community

WunderPhotos

Upload Photos

1,749,888 photos uploaded!

Nearby

Snow Depth

Not available.

Earthquake Activity

City Distance Mag. Time & Date
No recent earthquake activity has been reported nearby.
Minimum magnitude displayed is 2.5.

Coastal Water Temperatures

Place Temperature
No Stations Reporting

Nearby Weather Stations